createdAt,value
2023-05-13T00:00:42.492Z,4.1
2023-05-13T00:01:42.473Z,3.7
2023-05-13T00:02:42.545Z,4.0
2023-05-13T00:03:42.679Z,3.4
2023-05-13T00:04:42.536Z,3.9
2023-05-13T00:05:42.454Z,3.9
2023-05-13T00:06:42.457Z,3.3
2023-05-13T00:07:42.481Z,3.5
2023-05-13T00:08:42.505Z,3.7
2023-05-13T00:09:42.649Z,3.6
2023-05-13T00:10:42.485Z,3.1
2023-05-13T00:11:42.544Z,3.3
2023-05-13T00:12:42.460Z,3.2
2023-05-13T00:13:42.576Z,3.6
2023-05-13T00:14:42.479Z,3.1
2023-05-13T00:15:42.454Z,3.5
2023-05-13T00:16:42.495Z,3.5
2023-05-13T00:17:42.718Z,3.5
2023-05-13T00:18:42.508Z,3.6
2023-05-13T00:19:42.663Z,3.3
2023-05-13T00:20:42.567Z,3.6
2023-05-13T00:22:12.143Z,3.5
2023-05-13T00:22:42.389Z,3.1
2023-05-13T00:23:42.453Z,3.4
2023-05-13T00:24:42.427Z,3.7
2023-05-13T00:25:42.509Z,4.0
2023-05-13T00:26:42.422Z,3.6
2023-05-13T00:27:42.782Z,3.5
2023-05-13T00:28:42.464Z,3.2
2023-05-13T00:29:42.491Z,3.3
2023-05-13T00:30:42.436Z,3.9
2023-05-13T00:31:42.505Z,3.5
2023-05-13T00:32:42.539Z,3.6
2023-05-13T00:33:42.416Z,3.7
2023-05-13T00:34:42.429Z,3.3
2023-05-13T00:35:42.456Z,3.3
2023-05-13T00:36:42.387Z,3.7
2023-05-13T00:37:42.422Z,4.0
2023-05-13T00:38:42.426Z,3.7
2023-05-13T00:39:42.419Z,3.6
2023-05-13T00:40:42.428Z,3.5
2023-05-13T00:41:42.420Z,3.5
2023-05-13T00:42:42.614Z,3.8
2023-05-13T00:43:42.402Z,3.5
2023-05-13T00:44:42.427Z,3.8
2023-05-13T00:45:42.504Z,4.0
2023-05-13T00:46:42.381Z,3.9
2023-05-13T00:47:42.415Z,3.7
2023-05-13T00:48:42.440Z,3.5
2023-05-13T00:49:42.388Z,3.7
2023-05-13T00:50:42.438Z,3.6
2023-05-13T00:51:42.398Z,3.4
2023-05-13T00:52:42.365Z,3.6
2023-05-13T00:53:42.555Z,3.6
2023-05-13T00:54:42.425Z,3.5
2023-05-13T00:55:42.401Z,3.9
2023-05-13T00:56:42.363Z,3.3
2023-05-13T00:57:42.390Z,4.0
2023-05-13T00:58:42.387Z,4.0
2023-05-13T00:59:42.453Z,4.2
2023-05-13T01:00:42.396Z,4.1
2023-05-13T01:01:42.439Z,3.3
2023-05-13T01:02:42.473Z,3.4
2023-05-13T01:03:42.551Z,3.7
2023-05-13T01:04:42.458Z,3.6
2023-05-13T01:05:42.352Z,4.0
2023-05-13T01:06:45.982Z,3.5
2023-05-13T01:07:42.365Z,3.4
2023-05-13T01:08:42.360Z,3.6
2023-05-13T01:09:42.414Z,3.4
2023-05-13T01:10:42.395Z,3.6
2023-05-13T01:11:42.396Z,3.4
2023-05-13T01:12:42.392Z,3.7
2023-05-13T01:13:42.548Z,3.9
2023-05-13T01:14:42.460Z,3.9
2023-05-13T01:15:42.574Z,4.0
2023-05-13T01:16:42.496Z,3.6
2023-05-13T01:17:42.521Z,3.7
2023-05-13T01:18:42.387Z,4.2
2023-05-13T01:19:42.964Z,3.9
2023-05-13T01:20:42.444Z,4.7
2023-05-13T01:21:42.347Z,4.6
2023-05-13T01:22:53.228Z,3.8
2023-05-13T01:23:42.340Z,4.1
2023-05-13T01:24:42.374Z,4.6
2023-05-13T01:25:42.352Z,3.9
2023-05-13T01:26:43.232Z,4.1
2023-05-13T01:27:52.750Z,4.5
2023-05-13T01:28:42.285Z,4.1
2023-05-13T01:29:42.368Z,4.0
2023-05-13T01:30:42.361Z,4.1
2023-05-13T01:31:43.415Z,4.1
2023-05-13T01:32:42.353Z,4.0
2023-05-13T01:33:42.401Z,4.3
2023-05-13T01:34:42.393Z,4.1
2023-05-13T01:35:42.375Z,4.0
2023-05-13T01:36:42.308Z,4.3
2023-05-13T01:37:42.379Z,4.4
2023-05-13T01:38:42.383Z,4.2
2023-05-13T01:39:43.812Z,4.2
2023-05-13T01:40:43.114Z,4.2
2023-05-13T01:41:43.810Z,4.1
2023-05-13T01:42:42.352Z,4.8
2023-05-13T01:43:42.408Z,4.0
2023-05-13T01:44:42.351Z,4.4
2023-05-13T01:45:42.458Z,3.7
2023-05-13T01:46:42.348Z,4.7
2023-05-13T01:47:42.583Z,3.8
2023-05-13T01:48:42.320Z,3.7
2023-05-13T01:49:42.454Z,4.3
2023-05-13T01:50:42.293Z,3.7
2023-05-13T01:51:42.287Z,4.5
2023-05-13T01:52:42.575Z,4.1
2023-05-13T01:53:42.309Z,4.1
2023-05-13T01:54:42.346Z,4.7
2023-05-13T01:55:42.263Z,4.3
2023-05-13T01:56:42.284Z,4.1
2023-05-13T01:57:42.261Z,4.4
2023-05-13T01:58:42.423Z,4.5
2023-05-13T01:59:42.289Z,4.8
2023-05-13T02:00:42.285Z,4.0
2023-05-13T02:01:42.281Z,4.1
2023-05-13T02:02:42.373Z,4.6
2023-05-13T02:03:42.326Z,5.3
2023-05-13T02:04:42.296Z,4.5
2023-05-13T02:05:42.265Z,4.6
2023-05-13T02:06:42.284Z,4.1
2023-05-13T02:07:42.252Z,4.7
2023-05-13T02:08:42.296Z,4.7
2023-05-13T02:09:42.550Z,4.4
2023-05-13T02:10:42.250Z,4.7
2023-05-13T02:11:42.198Z,4.6
2023-05-13T02:12:42.244Z,4.3
2023-05-13T02:13:42.281Z,4.6
2023-05-13T02:14:42.256Z,4.3
2023-05-13T02:15:42.410Z,4.5
2023-05-13T02:16:42.396Z,4.4
2023-05-13T02:17:42.677Z,4.6
2023-05-13T02:18:42.271Z,4.7
2023-05-13T02:19:42.253Z,4.6
2023-05-13T02:20:42.362Z,4.7
2023-05-13T02:21:42.259Z,4.2
2023-05-13T02:22:42.315Z,4.9
2023-05-13T02:23:42.216Z,4.7
2023-05-13T02:24:42.207Z,5.5
2023-05-13T02:25:42.249Z,5.6
2023-05-13T02:26:42.225Z,5.0
2023-05-13T02:27:42.245Z,4.4
2023-05-13T02:28:42.218Z,5.4
2023-05-13T02:29:42.233Z,5.0
2023-05-13T02:30:42.223Z,5.2
2023-05-13T02:31:42.384Z,5.5
2023-05-13T02:32:42.260Z,5.0
2023-05-13T02:33:42.264Z,4.6
2023-05-13T02:34:42.265Z,4.9
2023-05-13T02:35:42.181Z,5.5
2023-05-13T02:36:42.245Z,5.4
2023-05-13T02:37:42.194Z,4.3
2023-05-13T02:38:42.253Z,4.8
2023-05-13T02:39:42.245Z,5.0
2023-05-13T02:40:42.256Z,5.1
2023-05-13T02:41:42.210Z,5.2
2023-05-13T02:42:42.393Z,4.8
2023-05-13T02:43:42.222Z,5.3
2023-05-13T02:44:42.270Z,5.0
2023-05-13T02:45:42.318Z,4.9
2023-05-13T02:46:42.209Z,5.4
2023-05-13T02:47:42.238Z,4.6
2023-05-13T02:48:42.231Z,4.6
2023-05-13T02:49:42.181Z,5.1
2023-05-13T02:50:42.227Z,5.8
2023-05-13T02:51:42.261Z,4.7
2023-05-13T02:52:42.168Z,5.0
2023-05-13T02:53:42.438Z,5.6
2023-05-13T02:54:42.222Z,5.5
2023-05-13T02:55:42.217Z,4.7
2023-05-13T02:56:42.131Z,5.1
2023-05-13T02:57:42.223Z,4.9
2023-05-13T02:58:42.181Z,4.8
2023-05-13T02:59:42.174Z,4.7
2023-05-13T03:00:42.162Z,5.2
2023-05-13T03:01:42.222Z,5.2
2023-05-13T03:02:42.300Z,4.8
2023-05-13T03:03:42.234Z,4.8
2023-05-13T03:04:42.317Z,5.0
2023-05-13T03:05:42.187Z,5.2
2023-05-13T03:06:42.154Z,4.7
2023-05-13T03:07:42.181Z,4.9
2023-05-13T03:08:42.155Z,5.4
2023-05-13T03:09:42.206Z,5.7
2023-05-13T03:10:42.137Z,4.8
2023-05-13T03:11:42.174Z,4.6
2023-05-13T03:12:42.192Z,5.2
2023-05-13T03:13:42.193Z,5.2
2023-05-13T03:14:42.143Z,5.1
2023-05-13T03:15:44.245Z,5.2
2023-05-13T03:16:42.228Z,5.5
2023-05-13T03:17:42.299Z,5.7
2023-05-13T03:18:42.223Z,5.3
2023-05-13T03:19:42.158Z,5.3
2023-05-13T03:20:42.166Z,5.5
2023-05-13T03:21:42.135Z,5.5
2023-05-13T03:22:42.316Z,4.8
2023-05-13T03:23:42.170Z,6.2
2023-05-13T03:24:42.247Z,5.7
2023-05-13T03:25:42.121Z,5.4
2023-05-13T03:26:42.381Z,5.1
2023-05-13T03:27:42.117Z,5.4
2023-05-13T03:28:42.293Z,5.3
2023-05-13T03:29:42.145Z,5.5
2023-05-13T03:30:42.127Z,5.7
2023-05-13T03:31:42.170Z,5.4
2023-05-13T03:32:42.100Z,5.9
2023-05-13T03:33:42.181Z,5.2
2023-05-13T03:34:42.144Z,6.0
2023-05-13T03:35:42.106Z,4.7
2023-05-13T03:36:42.190Z,5.1
2023-05-13T03:37:42.222Z,4.9
2023-05-13T03:38:42.207Z,5.1
2023-05-13T03:39:42.269Z,5.3
2023-05-13T03:40:42.089Z,5.1
2023-05-13T03:41:42.136Z,5.1
2023-05-13T03:42:42.125Z,5.5
2023-05-13T03:43:42.104Z,5.4
2023-05-13T03:44:42.100Z,5.2
2023-05-13T03:45:42.615Z,4.9
2023-05-13T03:46:42.138Z,5.5
2023-05-13T03:47:42.186Z,5.4
2023-05-13T03:48:42.095Z,5.4
2023-05-13T03:49:42.420Z,4.9
2023-05-13T03:50:42.125Z,5.1
2023-05-13T03:51:43.137Z,5.0
2023-05-13T03:52:42.092Z,5.4
2023-05-13T03:53:42.125Z,5.6
2023-05-13T03:54:42.085Z,4.9
2023-05-13T03:55:42.104Z,5.8
2023-05-13T03:56:42.064Z,5.5
2023-05-13T03:57:42.062Z,5.7
2023-05-13T03:58:42.185Z,5.5
2023-05-13T03:59:42.129Z,5.4
2023-05-13T04:00:42.331Z,5.1
2023-05-13T04:01:42.178Z,5.4
2023-05-13T04:02:42.157Z,5.3
2023-05-13T04:03:42.047Z,5.0
2023-05-13T04:04:42.237Z,4.8
2023-05-13T04:05:42.058Z,4.7
2023-05-13T04:06:42.119Z,4.8
2023-05-13T04:07:42.099Z,4.8
2023-05-13T04:08:42.053Z,4.9
2023-05-13T04:09:42.056Z,5.3
2023-05-13T04:10:42.094Z,5.2
2023-05-13T04:11:42.165Z,4.8
2023-05-13T04:12:42.087Z,4.9
2023-05-13T04:13:42.135Z,4.6
2023-05-13T04:14:42.052Z,4.6
2023-05-13T04:15:42.051Z,4.3
2023-05-13T04:16:42.139Z,4.2
2023-05-13T04:17:42.112Z,4.7
2023-05-13T04:18:42.045Z,4.3
2023-05-13T04:19:42.042Z,5.0
2023-05-13T04:20:42.079Z,5.0
2023-05-13T04:21:42.068Z,4.5
2023-05-13T04:22:42.062Z,4.7
2023-05-13T04:23:42.054Z,4.7
2023-05-13T04:24:42.061Z,4.7
2023-05-13T04:25:42.092Z,5.1
2023-05-13T04:26:42.016Z,5.1
2023-05-13T04:27:42.063Z,4.5
2023-05-13T04:28:42.010Z,5.0
2023-05-13T04:29:42.035Z,4.4
2023-05-13T04:30:42.085Z,4.1
2023-05-13T04:31:42.194Z,4.5
2023-05-13T04:32:42.191Z,5.0
2023-05-13T04:33:41.999Z,4.2
2023-05-13T04:34:42.052Z,4.2
2023-05-13T04:35:42.020Z,4.3
2023-05-13T04:36:41.990Z,4.4
2023-05-13T04:37:42.048Z,4.9
2023-05-13T04:38:42.018Z,4.5
2023-05-13T04:39:42.034Z,4.4
2023-05-13T04:40:42.253Z,4.5
2023-05-13T04:41:41.985Z,4.4
2023-05-13T04:42:42.024Z,4.1
2023-05-13T04:43:42.143Z,4.2
2023-05-13T04:44:42.043Z,5.1
2023-05-13T04:45:42.013Z,4.9
2023-05-13T04:46:42.353Z,4.8
2023-05-13T04:47:42.023Z,4.4
2023-05-13T04:48:42.058Z,4.8
2023-05-13T04:49:41.968Z,4.4
2023-05-13T04:50:41.998Z,4.5
2023-05-13T04:51:42.009Z,4.1
2023-05-13T04:52:42.035Z,4.6
2023-05-13T04:53:41.968Z,4.5
2023-05-13T04:54:41.981Z,4.5
2023-05-13T04:55:42.024Z,4.2
2023-05-13T04:56:41.982Z,4.0
2023-05-13T04:57:41.972Z,3.5
2023-05-13T04:58:42.005Z,3.8
2023-05-13T04:59:41.983Z,4.6
2023-05-13T05:00:42.053Z,4.5
2023-05-13T05:01:42.155Z,4.2
2023-05-13T05:02:42.074Z,4.2
2023-05-13T05:03:42.077Z,4.4
2023-05-13T05:04:41.997Z,3.7
2023-05-13T05:05:41.929Z,4.2
2023-05-13T05:06:46.513Z,4.4
2023-05-13T05:07:41.930Z,4.3
2023-05-13T05:08:42.514Z,3.5
2023-05-13T05:10:41.961Z,3.9
2023-05-13T05:11:41.958Z,3.6
2023-05-13T05:12:41.991Z,4.2
2023-05-13T05:13:41.956Z,4.0
2023-05-13T05:14:41.946Z,3.8
2023-05-13T05:15:41.976Z,3.8
2023-05-13T05:16:41.915Z,3.5
2023-05-13T05:17:42.018Z,3.8
2023-05-13T05:18:42.026Z,3.1
2023-05-13T05:19:46.587Z,3.9
2023-05-13T05:20:42.004Z,3.4
2023-05-13T05:21:41.952Z,3.5
2023-05-13T05:22:41.962Z,3.1
2023-05-13T05:23:41.928Z,3.7
2023-05-13T05:24:41.967Z,3.4
2023-05-13T05:25:41.918Z,2.9
2023-05-13T05:26:42.851Z,3.2
2023-05-13T05:28:41.901Z,3.1
2023-05-13T05:29:42.508Z,3.0
2023-05-13T05:30:41.941Z,3.2
2023-05-13T05:31:42.003Z,3.4
2023-05-13T05:32:41.950Z,3.1
2023-05-13T05:33:41.906Z,3.2
2023-05-13T05:34:41.941Z,3.2
2023-05-13T05:35:41.938Z,3.4
2023-05-13T05:36:41.912Z,3.2
2023-05-13T05:37:41.894Z,3.7
2023-05-13T05:38:42.011Z,2.9
2023-05-13T05:39:41.947Z,2.9
2023-05-13T05:40:41.919Z,3.4
2023-05-13T05:41:41.949Z,3.7
2023-05-13T05:42:42.010Z,3.0
2023-05-13T05:43:41.902Z,3.5
2023-05-13T05:44:41.909Z,3.4
2023-05-13T05:45:41.973Z,3.2
2023-05-13T05:46:41.934Z,3.0
2023-05-13T05:47:41.940Z,3.7
2023-05-13T05:48:41.915Z,3.2
2023-05-13T05:49:41.908Z,3.1
2023-05-13T05:50:42.096Z,3.2
2023-05-13T05:51:41.891Z,3.2
2023-05-13T05:52:41.897Z,2.8
2023-05-13T05:53:41.909Z,3.1
2023-05-13T05:54:41.895Z,3.1
2023-05-13T05:55:41.923Z,3.1
2023-05-13T05:56:41.866Z,2.8
2023-05-13T05:58:41.843Z,3.0
2023-05-13T05:59:41.875Z,3.1
2023-05-13T06:00:41.892Z,2.8
2023-05-13T06:01:42.019Z,3.1
2023-05-13T06:02:41.917Z,3.5
2023-05-13T06:03:41.928Z,2.6
2023-05-13T06:04:41.956Z,2.7
2023-05-13T06:05:52.326Z,2.7
2023-05-13T06:06:41.938Z,3.0
2023-05-13T06:07:41.866Z,3.0
2023-05-13T06:08:41.862Z,3.0
2023-05-13T06:09:41.909Z,2.9
2023-05-13T06:10:41.904Z,3.1
2023-05-13T06:11:41.874Z,2.3
2023-05-13T06:12:41.975Z,2.6
2023-05-13T06:13:41.860Z,2.8
2023-05-13T06:14:41.897Z,3.0
2023-05-13T06:15:41.908Z,2.6
2023-05-13T06:16:41.987Z,2.9
2023-05-13T06:17:42.028Z,2.5
2023-05-13T06:18:41.892Z,2.5
2023-05-13T06:19:41.825Z,2.4
2023-05-13T06:20:41.852Z,2.5
2023-05-13T06:21:41.906Z,2.8
2023-05-13T06:22:41.889Z,2.7
2023-05-13T06:23:42.062Z,3.1
2023-05-13T06:24:41.826Z,3.4
2023-05-13T06:25:41.851Z,2.8
2023-05-13T06:26:41.879Z,2.9
2023-05-13T06:27:41.936Z,2.5
2023-05-13T06:28:41.867Z,2.9
2023-05-13T06:29:41.861Z,2.4
2023-05-13T06:30:41.822Z,2.2
2023-05-13T06:31:41.930Z,2.0
2023-05-13T06:32:53.582Z,2.2
2023-05-13T06:33:41.921Z,2.7
2023-05-13T06:34:42.013Z,1.9
2023-05-13T06:35:41.908Z,2.5
2023-05-13T06:36:41.836Z,1.9
2023-05-13T06:37:41.861Z,2.4
2023-05-13T06:38:41.859Z,2.3
2023-05-13T06:39:41.901Z,1.8
2023-05-13T06:40:41.794Z,1.9
2023-05-13T06:41:41.815Z,2.1
2023-05-13T06:43:41.812Z,2.2
2023-05-13T06:44:41.825Z,2.1
2023-05-13T06:46:41.896Z,2.1
2023-05-13T06:48:04.753Z,2.3
2023-05-13T06:48:41.801Z,1.9
2023-05-13T06:49:41.810Z,2.1
2023-05-13T06:50:41.823Z,2.9
2023-05-13T06:51:41.812Z,2.2
2023-05-13T06:52:42.053Z,2.3
2023-05-13T06:53:41.833Z,1.9
2023-05-13T06:54:41.796Z,2.1
2023-05-13T06:55:42.022Z,2.3
2023-05-13T06:56:41.900Z,2.0
2023-05-13T06:57:43.400Z,2.6
2023-05-13T06:58:41.824Z,2.3
2023-05-13T06:59:41.794Z,2.4
2023-05-13T07:00:41.879Z,2.3
2023-05-13T07:01:41.772Z,2.2
2023-05-13T07:02:41.847Z,2.1
2023-05-13T07:03:41.811Z,2.3
2023-05-13T07:04:41.845Z,2.3
2023-05-13T07:05:41.777Z,2.4
2023-05-13T07:06:41.806Z,2.4
2023-05-13T07:07:41.893Z,2.3
2023-05-13T07:08:41.810Z,2.2
2023-05-13T07:09:41.822Z,2.3
2023-05-13T07:10:43.163Z,2.0
2023-05-13T07:11:41.781Z,2.6
2023-05-13T07:12:41.771Z,2.2
2023-05-13T07:13:41.848Z,2.1
2023-05-13T07:14:41.758Z,2.0
2023-05-13T07:15:41.776Z,2.0
2023-05-13T07:16:41.782Z,2.1
2023-05-13T07:17:41.845Z,2.4
2023-05-13T07:18:41.936Z,2.3
2023-05-13T07:19:41.794Z,2.6
2023-05-13T07:20:41.772Z,2.0
2023-05-13T07:21:41.737Z,2.4
2023-05-13T07:22:41.741Z,3.2
2023-05-13T07:23:43.768Z,2.4
2023-05-13T07:24:41.763Z,2.4
2023-05-13T07:25:41.800Z,2.4
2023-05-13T07:26:41.746Z,2.1
2023-05-13T07:27:41.720Z,2.2
2023-05-13T07:28:41.745Z,2.5
2023-05-13T07:29:41.893Z,2.0
2023-05-13T07:30:41.860Z,2.4
2023-05-13T07:31:41.760Z,2.3
2023-05-13T07:32:41.818Z,2.7
2023-05-13T07:33:41.709Z,2.1
2023-05-13T07:34:41.775Z,2.7
2023-05-13T07:35:41.755Z,2.5
2023-05-13T07:36:41.717Z,2.5
2023-05-13T07:37:41.735Z,2.3
2023-05-13T07:38:41.753Z,2.5
2023-05-13T07:39:41.711Z,1.9
2023-05-13T07:40:42.046Z,2.2
2023-05-13T07:41:41.752Z,3.0
2023-05-13T07:42:41.748Z,2.9
2023-05-13T07:43:41.765Z,2.5
2023-05-13T07:44:41.758Z,2.9
2023-05-13T07:45:42.080Z,2.6
2023-05-13T07:46:41.921Z,2.3
2023-05-13T07:47:44.386Z,2.5
2023-05-13T07:48:41.780Z,2.1
2023-05-13T07:49:41.733Z,2.6
2023-05-13T07:50:41.725Z,2.5
2023-05-13T07:51:41.892Z,2.5
2023-05-13T07:52:41.718Z,2.4
2023-05-13T07:53:41.796Z,3.2
2023-05-13T07:54:41.765Z,3.1
2023-05-13T07:55:41.766Z,2.5
2023-05-13T07:56:41.726Z,2.5
2023-05-13T07:57:41.735Z,2.5
2023-05-13T07:58:41.830Z,2.8
2023-05-13T07:59:42.787Z,2.4
2023-05-13T08:00:41.726Z,2.5
2023-05-13T08:01:41.753Z,2.5
2023-05-13T08:02:41.919Z,3.3
2023-05-13T08:04:41.855Z,2.3
2023-05-13T08:05:41.678Z,2.6
2023-05-13T08:06:41.722Z,2.1
2023-05-13T08:07:41.734Z,2.5
2023-05-13T08:08:41.823Z,2.5
2023-05-13T08:09:41.871Z,2.6
2023-05-13T08:10:58.300Z,2.6
2023-05-13T08:11:41.703Z,2.2
2023-05-13T08:12:41.701Z,2.3
2023-05-13T08:13:41.778Z,2.6
2023-05-13T08:14:41.730Z,1.9
2023-05-13T08:15:41.711Z,2.1
2023-05-13T08:16:41.730Z,2.0
2023-05-13T08:17:41.740Z,2.0
2023-05-13T08:18:41.777Z,2.4
2023-05-13T08:19:41.690Z,2.5
2023-05-13T08:20:41.683Z,2.6
2023-05-13T08:21:41.671Z,2.3
2023-05-13T08:22:41.693Z,2.6
2023-05-13T08:23:45.768Z,2.5
2023-05-13T08:24:41.665Z,2.7
2023-05-13T08:25:41.868Z,2.6
2023-05-13T08:26:41.707Z,2.9
2023-05-13T08:27:41.654Z,2.2
2023-05-13T08:28:42.684Z,2.6
2023-05-13T08:29:41.641Z,2.3
2023-05-13T08:30:41.733Z,2.2
2023-05-13T08:31:41.688Z,2.1
2023-05-13T08:33:41.908Z,2.4
2023-05-13T08:34:41.658Z,2.6
2023-05-13T08:35:44.211Z,2.7
2023-05-13T08:39:41.693Z,2.8
2023-05-13T08:40:41.821Z,2.4
2023-05-13T08:41:41.681Z,2.1
2023-05-13T08:42:41.649Z,2.0
2023-05-13T08:43:41.682Z,2.2
2023-05-13T08:44:41.750Z,2.0
2023-05-13T08:45:41.654Z,1.9
2023-05-13T08:46:41.640Z,2.1
2023-05-13T08:47:41.685Z,2.1
2023-05-13T08:48:41.625Z,2.6
2023-05-13T08:49:41.770Z,2.3
2023-05-13T08:50:41.809Z,2.2
2023-05-13T08:51:41.607Z,2.2
2023-05-13T08:52:41.638Z,2.1
2023-05-13T08:53:41.650Z,2.5
2023-05-13T08:54:41.619Z,2.0
2023-05-13T08:55:41.754Z,2.3
2023-05-13T08:56:41.781Z,2.0
2023-05-13T08:57:41.673Z,1.9
2023-05-13T08:58:41.700Z,2.1
2023-05-13T08:59:41.654Z,2.8
2023-05-13T09:00:41.618Z,2.4
2023-05-13T09:01:41.759Z,1.8
2023-05-13T09:02:41.656Z,2.2
2023-05-13T09:03:41.609Z,2.2
2023-05-13T09:04:41.657Z,2.1
2023-05-13T09:05:42.080Z,2.4
2023-05-13T09:06:41.642Z,2.1
2023-05-13T09:07:41.657Z,1.7
2023-05-13T09:08:41.590Z,2.0
2023-05-13T09:09:41.614Z,2.1
2023-05-13T09:10:41.623Z,1.9
2023-05-13T09:11:44.568Z,1.8
2023-05-13T09:12:41.634Z,1.8
2023-05-13T09:13:41.600Z,1.8
2023-05-13T09:14:41.614Z,1.8
2023-05-13T09:15:41.645Z,2.1
2023-05-13T09:16:41.613Z,2.2
2023-05-13T09:17:41.738Z,2.1
2023-05-13T09:18:41.736Z,1.8
2023-05-13T09:19:41.730Z,2.0
2023-05-13T09:20:41.611Z,2.0
2023-05-13T09:21:41.591Z,2.3
2023-05-13T09:22:41.720Z,2.3
2023-05-13T09:23:41.621Z,2.1
2023-05-13T09:24:41.650Z,1.6
2023-05-13T09:25:41.614Z,2.7
2023-05-13T09:26:41.605Z,2.1
2023-05-13T09:27:41.611Z,2.1
2023-05-13T09:28:41.638Z,2.5
2023-05-13T09:29:41.801Z,1.9
2023-05-13T09:30:43.876Z,1.8
2023-05-13T09:31:41.742Z,2.5
2023-05-13T09:32:41.611Z,2.3
2023-05-13T09:33:41.699Z,2.5
2023-05-13T09:34:41.613Z,1.6
2023-05-13T09:35:41.597Z,2.0
2023-05-13T09:36:41.601Z,1.7
2023-05-13T09:37:41.580Z,2.0
2023-05-13T09:38:41.599Z,2.4
2023-05-13T09:39:41.965Z,1.6
2023-05-13T09:40:41.600Z,1.7
2023-05-13T09:41:41.563Z,2.0
2023-05-13T09:42:41.558Z,2.1
2023-05-13T09:43:41.577Z,1.7
2023-05-13T09:44:41.718Z,2.1
2023-05-13T09:45:41.607Z,1.8
2023-05-13T09:46:41.601Z,2.1
2023-05-13T09:47:41.612Z,2.1
2023-05-13T09:48:41.620Z,2.1
2023-05-13T09:49:41.585Z,2.3
2023-05-13T09:50:41.596Z,2.1
2023-05-13T09:51:41.559Z,2.2
2023-05-13T09:52:41.561Z,2.1
2023-05-13T09:54:41.572Z,2.2
2023-05-13T09:55:41.529Z,1.9
2023-05-13T09:56:41.593Z,2.3
2023-05-13T09:57:41.556Z,1.9
2023-05-13T09:58:41.566Z,1.6
2023-05-13T09:59:41.587Z,2.0
2023-05-13T10:00:41.890Z,1.9
2023-05-13T10:01:41.665Z,2.0
2023-05-13T10:02:41.594Z,1.7
2023-05-13T10:03:41.621Z,1.8
2023-05-13T10:04:41.544Z,2.0
2023-05-13T10:05:41.575Z,1.6
2023-05-13T10:06:41.694Z,2.1
2023-05-13T10:07:41.577Z,1.6
2023-05-13T10:08:41.591Z,1.8
2023-05-13T10:09:41.581Z,2.0
2023-05-13T10:10:41.546Z,1.9
2023-05-13T10:11:41.558Z,1.6
2023-05-13T10:12:41.675Z,2.4
2023-05-13T10:13:41.747Z,1.8
2023-05-13T10:14:41.524Z,1.7
2023-05-13T10:15:41.552Z,1.9
2023-05-13T10:16:41.594Z,1.8
2023-05-13T10:17:41.699Z,2.2
2023-05-13T10:18:41.594Z,1.5
2023-05-13T10:19:41.548Z,2.2
2023-05-13T10:20:41.563Z,2.4
2023-05-13T10:21:41.538Z,2.0
2023-05-13T10:22:41.534Z,1.6
2023-05-13T10:23:41.710Z,2.1
2023-05-13T10:24:41.735Z,2.6
2023-05-13T10:25:41.577Z,2.4
2023-05-13T10:26:41.533Z,2.2
2023-05-13T10:27:41.519Z,2.0
2023-05-13T10:28:41.497Z,2.0
2023-05-13T10:29:41.626Z,2.0
2023-05-13T10:30:41.510Z,1.7
2023-05-13T10:31:41.563Z,1.9
2023-05-13T10:32:41.594Z,2.7
2023-05-13T10:33:41.507Z,1.9
2023-05-13T10:34:41.526Z,1.9
2023-05-13T10:36:41.522Z,1.8
2023-05-13T10:37:41.548Z,2.4
2023-05-13T10:38:41.559Z,2.0
2023-05-13T10:39:41.514Z,2.0
2023-05-13T10:40:41.566Z,2.5
2023-05-13T10:41:41.474Z,1.8
2023-05-13T10:42:41.494Z,1.9
2023-05-13T10:43:41.596Z,2.0
2023-05-13T10:44:41.477Z,2.0
2023-05-13T10:45:41.565Z,1.9
2023-05-13T10:46:41.511Z,1.9
2023-05-13T10:47:41.576Z,2.0
2023-05-13T10:48:41.677Z,1.7
2023-05-13T10:49:41.480Z,1.7
2023-05-13T10:50:41.681Z,2.2
2023-05-13T10:51:41.521Z,2.6
2023-05-13T10:52:41.552Z,2.0
2023-05-13T10:53:44.920Z,1.7
2023-05-13T10:54:41.457Z,1.7
2023-05-13T10:55:41.507Z,1.8
2023-05-13T10:56:41.479Z,2.0
2023-05-13T10:57:41.562Z,2.2
2023-05-13T10:59:41.471Z,1.5
2023-05-13T11:00:41.541Z,1.9
2023-05-13T11:01:41.615Z,1.9
2023-05-13T11:02:41.545Z,1.9
2023-05-13T11:03:41.604Z,2.3
2023-05-13T11:04:41.466Z,2.2
2023-05-13T11:05:41.496Z,2.1
2023-05-13T11:06:41.513Z,2.1
2023-05-13T11:07:41.500Z,1.9
2023-05-13T11:08:41.474Z,2.3
2023-05-13T11:09:41.485Z,2.0
2023-05-13T11:12:41.668Z,2.0
2023-05-13T11:13:41.450Z,1.8
2023-05-13T11:14:41.447Z,2.1
2023-05-13T11:15:41.482Z,2.0
2023-05-13T11:16:41.559Z,3.1
2023-05-13T11:17:41.554Z,2.3
2023-05-13T11:20:51.489Z,2.0
2023-05-13T11:21:41.447Z,3.0
2023-05-13T11:22:41.477Z,2.2
2023-05-13T11:23:41.597Z,2.6
2023-05-13T11:24:41.450Z,2.2
2023-05-13T11:25:41.450Z,2.1
2023-05-13T11:26:41.433Z,2.1
2023-05-13T11:27:41.507Z,2.4
2023-05-13T11:28:41.472Z,2.1
2023-05-13T11:30:04.323Z,2.0
2023-05-13T11:30:41.469Z,2.0
2023-05-13T11:31:41.504Z,2.6
2023-05-13T11:32:41.481Z,1.9
2023-05-13T11:33:41.497Z,2.7
2023-05-13T11:34:41.559Z,2.1
2023-05-13T11:35:41.420Z,2.2
2023-05-13T11:37:02.772Z,2.2
2023-05-13T11:39:41.483Z,2.4
2023-05-13T11:40:41.421Z,2.1
2023-05-13T11:41:47.397Z,2.2
2023-05-13T11:42:41.452Z,2.1
2023-05-13T11:43:41.438Z,2.2
2023-05-13T11:44:41.472Z,2.1
2023-05-13T11:45:41.730Z,2.5
2023-05-13T11:46:41.410Z,2.1
2023-05-13T11:47:41.438Z,2.0
2023-05-13T11:48:41.490Z,2.3
2023-05-13T11:49:41.452Z,2.3
2023-05-13T11:50:41.414Z,2.8
2023-05-13T11:51:41.441Z,2.4
2023-05-13T11:52:41.480Z,2.2
2023-05-13T11:53:41.450Z,2.0
2023-05-13T11:54:41.402Z,2.4
2023-05-13T11:55:41.489Z,1.9
2023-05-13T11:56:41.543Z,2.2
2023-05-13T11:57:41.462Z,2.4
2023-05-13T11:58:41.438Z,2.1
2023-05-13T11:59:48.018Z,2.1
2023-05-13T12:00:41.399Z,2.2
2023-05-13T12:01:52.192Z,2.3
2023-05-13T12:02:41.502Z,2.9
2023-05-13T12:03:41.411Z,2.6
2023-05-13T12:04:41.446Z,2.6
2023-05-13T12:05:41.440Z,2.4
2023-05-13T12:06:41.414Z,2.0
2023-05-13T12:07:41.541Z,2.5
2023-05-13T12:08:41.441Z,2.5
2023-05-13T12:09:41.392Z,2.5
2023-05-13T12:10:41.423Z,2.2
2023-05-13T12:11:41.424Z,2.2
2023-05-13T12:13:41.387Z,2.5
2023-05-13T12:14:41.651Z,2.1
2023-05-13T12:15:41.408Z,2.3
2023-05-13T12:16:41.371Z,2.1
2023-05-13T12:17:41.427Z,2.1
2023-05-13T12:18:41.559Z,2.3
2023-05-13T12:19:41.431Z,2.3
2023-05-13T12:20:42.495Z,2.1
2023-05-13T12:21:41.370Z,2.4
2023-05-13T12:22:41.350Z,2.9
2023-05-13T12:23:41.404Z,2.2
2023-05-13T12:24:41.396Z,2.1
2023-05-13T12:25:41.428Z,2.1
2023-05-13T12:26:41.385Z,1.8
2023-05-13T12:27:41.366Z,1.9
2023-05-13T12:28:41.408Z,2.2
2023-05-13T12:29:41.558Z,1.8
2023-05-13T12:30:41.411Z,2.0
2023-05-13T12:31:41.427Z,2.1
2023-05-13T12:32:41.423Z,2.2
2023-05-13T12:33:41.473Z,2.8
2023-05-13T12:34:41.354Z,3.0
2023-05-13T12:35:41.408Z,2.0
2023-05-13T12:36:41.444Z,2.0
2023-05-13T12:37:41.353Z,1.8
2023-05-13T12:38:41.400Z,2.0
2023-05-13T12:39:41.363Z,1.9
2023-05-13T12:40:41.611Z,2.2
2023-05-13T12:41:41.371Z,2.2
2023-05-13T12:42:41.343Z,2.2
2023-05-13T12:43:41.382Z,2.0
2023-05-13T12:44:41.477Z,2.5
2023-05-13T12:45:43.253Z,2.3
2023-05-13T12:46:41.428Z,2.4
2023-05-13T12:47:41.373Z,2.2
2023-05-13T12:48:41.381Z,2.3
2023-05-13T12:49:41.343Z,1.9
2023-05-13T12:50:41.320Z,2.0
2023-05-13T12:51:41.589Z,1.9
2023-05-13T12:52:41.340Z,1.9
2023-05-13T12:53:41.523Z,1.6
2023-05-13T12:54:41.368Z,2.0
2023-05-13T12:55:41.354Z,2.3
2023-05-13T12:56:41.320Z,1.8
2023-05-13T12:57:41.402Z,2.0
2023-05-13T12:58:41.346Z,2.3
2023-05-13T12:59:41.311Z,2.4
2023-05-13T13:00:41.331Z,1.9
2023-05-13T13:01:41.389Z,1.9
2023-05-13T13:02:41.665Z,2.0
2023-05-13T13:03:41.924Z,2.1
2023-05-13T13:04:41.625Z,1.7
2023-05-13T13:05:41.895Z,2.1
2023-05-13T13:06:41.323Z,2.0
2023-05-13T13:07:41.326Z,1.7
2023-05-13T13:08:41.300Z,2.1
2023-05-13T13:09:41.326Z,1.8
2023-05-13T13:10:41.321Z,1.7
2023-05-13T13:11:41.343Z,1.8
2023-05-13T13:12:41.300Z,2.0
2023-05-13T13:13:41.309Z,2.2
2023-05-13T13:14:41.380Z,2.0
2023-05-13T13:15:41.449Z,1.6
2023-05-13T13:16:41.780Z,1.4
2023-05-13T13:17:41.480Z,2.1
2023-05-13T13:18:41.383Z,1.5
2023-05-13T13:19:41.335Z,1.6
2023-05-13T13:20:41.308Z,1.7
2023-05-13T13:21:41.337Z,1.6
2023-05-13T13:22:41.379Z,1.8
2023-05-13T13:23:41.392Z,1.7
2023-05-13T13:24:41.462Z,1.5
2023-05-13T13:25:41.292Z,2.0
2023-05-13T13:26:41.287Z,1.7
2023-05-13T13:28:03.828Z,1.7
2023-05-13T13:28:41.396Z,1.7
2023-05-13T13:29:41.295Z,1.8
2023-05-13T13:30:41.278Z,1.9
2023-05-13T13:31:41.340Z,1.5
2023-05-13T13:32:41.299Z,1.9
2023-05-13T13:33:41.417Z,1.8
2023-05-13T13:34:41.279Z,2.5
2023-05-13T13:35:41.366Z,1.8
2023-05-13T13:36:41.270Z,1.7
2023-05-13T13:37:41.278Z,2.3
2023-05-13T13:38:41.545Z,1.9
2023-05-13T13:39:41.287Z,2.9
2023-05-13T13:40:41.307Z,2.2
2023-05-13T13:41:41.269Z,1.9
2023-05-13T13:42:44.767Z,2.5
2023-05-13T13:43:41.290Z,6.1
2023-05-13T13:44:41.475Z,9.8
2023-05-13T13:45:41.304Z,5.6
2023-05-13T13:46:41.592Z,2.2
2023-05-13T13:47:41.348Z,2.5
2023-05-13T13:50:44.410Z,3.2
2023-05-13T13:51:43.382Z,1.5
2023-05-13T13:52:43.363Z,1.6
2023-05-13T13:53:43.467Z,2.1
2023-05-13T13:54:43.369Z,1.8
2023-05-13T13:55:43.419Z,2.4
2023-05-13T13:56:43.347Z,1.9
2023-05-13T13:57:43.372Z,2.1
2023-05-13T13:58:43.371Z,3.6
2023-05-13T13:59:43.366Z,2.8
2023-05-13T14:00:43.437Z,15.4
2023-05-13T14:01:43.463Z,7.3
2023-05-13T14:02:50.474Z,4.6
2023-05-13T14:04:43.353Z,3.3
2023-05-13T14:05:43.379Z,4.3
2023-05-13T14:06:43.355Z,2.5
2023-05-13T14:07:43.503Z,1.8
2023-05-13T14:08:43.315Z,3.7
2023-05-13T14:09:43.337Z,4.7